Country
Station

 

Weather  for  Columbia, Columbia Owens Downtown Airport  -  United States    United States

  
29 °C (84 °F)
    
 
 

Current METAR for Columbia, Columbia Owens Downtown Airport is :

KCUB 191453Z AUTO VRB05KT 10SM CLR 29/18 A3001 RMK AO2 SLP160 T02940178 53013

 

This is a report for Columbia, Columbia Owens Downtown Airport - United States.
 
The report was made 48 minutes ago, at 14:53 UTC .
The wind was blowing at a speed of 2.6 meters per second (5.8 miles per hour) from variable directions.
 
The temperature was 29 °C (84 °F), with a dew-point at 18 °C (64 °F).
The temperature felt like 29 °C (85 °F).
 
The atmospheric pressure was 1016 hPa (30.01 inHg).
The relative humidity was 51.5%.
 
The sky was clear.
 
The overall visibility was 16.1 kilometers (10.0 miles).
 

 
 
 
 

Country :   A   B   C   D   E   F   G   H   I   J   K   L   M   N   O   P   Q   R   S   T   U   V   W   Y   Z

 

Site Info  |  Disclaimer  |  Credits  |  Privacy
Contact us  |  Add to favorites
© 2013-2018 METARs - All rights reserved